Time;durP1;ratioP1;P1;durP2;ratioP2;P2;SDS_P1;SDS_P2;PMS_P1;PMS_P2;Temp;Humidity;BMP_temperature;BMP_pressure;BME280_temperature;BME280_humidity;BME280_pressure;Samples;Min_cycle;Max_cycle;Signal;HPM_P1;HPM_P2
2024/01/18 00:02:03;;;;;;;12.00;7.72;;;18.30;69.60;;;;;;5010499;28;20056;-67
2024/01/18 00:04:28;;;;;;;9.30;6.78;;;18.20;69.70;;;;;;5011093;28;20022;-65
2024/01/18 00:06:54;;;;;;;8.27;6.57;;;18.30;69.50;;;;;;5011066;28;20025;-67
2024/01/18 00:09:22;;;;;;;10.73;7.38;;;18.20;69.50;;;;;;5010907;28;20041;-64
2024/01/18 00:11:47;;;;;;;10.60;7.07;;;18.20;69.50;;;;;;5010386;28;20026;-67
2024/01/18 00:14:13;;;;;;;10.80;6.38;;;18.30;69.30;;;;;;5011225;28;20037;-67
2024/01/18 00:16:39;;;;;;;10.48;6.22;;;18.20;69.50;;;;;;5011085;28;20496;-66
2024/01/18 00:19:04;;;;;;;9.02;6.32;;;18.30;69.70;;;;;;5010847;28;20026;-66
2024/01/18 00:21:30;;;;;;;10.38;6.13;;;18.30;69.80;;;;;;5010203;28;20038;-65
2024/01/18 00:23:56;;;;;;;11.75;6.20;;;18.20;69.90;;;;;;5010884;28;20509;-67
2024/01/18 00:26:21;;;;;;;11.27;5.88;;;18.20;69.90;;;;;;5010860;28;20104;-65
2024/01/18 00:28:47;;;;;;;8.40;6.35;;;18.30;70.10;;;;;;5010792;28;20404;-64
2024/01/18 00:31:13;;;;;;;8.52;5.97;;;18.20;70.20;;;;;;5010210;28;20018;-67
2024/01/18 00:33:39;;;;;;;11.20;5.97;;;18.20;70.20;;;;;;5010763;28;20034;-68
2024/01/18 00:36:05;;;;;;;7.22;5.70;;;18.20;70.40;;;;;;5012305;28;20378;-67
2024/01/18 00:38:31;;;;;;;7.50;5.97;;;18.20;70.70;;;;;;5014522;28;20030;-67
2024/01/18 00:40:57;;;;;;;18.80;5.97;;;18.20;70.90;;;;;;5013726;28;20101;-68
2024/01/18 00:43:22;;;;;;;9.98;5.75;;;18.20;71.30;;;;;;5014344;28;20022;-67
2024/01/18 00:45:48;;;;;;;13.95;6.20;;;18.20;71.20;;;;;;5014395;28;20018;-68
2024/01/18 00:48:13;;;;;;;22.33;6.72;;;18.30;71.00;;;;;;5014353;28;20033;-67
2024/01/18 00:50:39;;;;;;;13.77;5.75;;;18.20;71.30;;;;;;5013772;28;20141;-66
2024/01/18 00:53:04;;;;;;;7.60;5.65;;;18.20;71.20;;;;;;5014266;28;20505;-65
2024/01/18 00:55:32;;;;;;;9.02;5.47;;;18.20;70.10;;;;;;5014148;28;20029;-65
2024/01/18 00:57:58;;;;;;;7.57;5.72;;;18.20;69.80;;;;;;5014127;28;20018;-67
2024/01/18 01:00:23;;;;;;;17.83;5.90;;;18.20;69.60;;;;;;5013172;28;20026;-66
2024/01/18 01:02:51;;;;;;;12.68;5.20;;;18.20;69.90;;;;;;5013992;28;20026;-68
2024/01/18 01:05:16;;;;;;;9.50;5.45;;;18.20;70.00;;;;;;5013964;28;20389;-67
2024/01/18 01:07:42;;;;;;;16.77;5.50;;;18.20;70.20;;;;;;5013905;28;20101;-66
2024/01/18 01:10:08;;;;;;;9.88;5.05;;;18.20;70.20;;;;;;5013147;28;20116;-68
2024/01/18 01:12:33;;;;;;;11.15;5.80;;;18.20;70.20;;;;;;5013745;28;20025;-69
2024/01/18 01:14:59;;;;;;;7.35;4.57;;;18.20;70.30;;;;;;5013846;28;20113;-68
2024/01/18 01:17:25;;;;;;;10.15;5.00;;;18.20;70.30;;;;;;5012429;28;20030;-67
2024/01/18 01:19:50;;;;;;;8.43;5.22;;;18.20;70.20;;;;;;5012889;28;20041;-68
2024/01/18 01:22:16;;;;;;;6.70;4.85;;;18.20;70.30;;;;;;5013608;28;20091;-68
2024/01/18 01:24:41;;;;;;;12.45;4.93;;;18.20;70.30;;;;;;5013696;28;20060;-68
2024/01/18 01:27:08;;;;;;;9.20;5.13;;;18.20;70.50;;;;;;5013633;28;20391;-68
2024/01/18 01:29:34;;;;;;;12.23;5.13;;;18.20;70.40;;;;;;5011966;28;20577;-65
2024/01/18 01:32:00;;;;;;;7.88;5.43;;;18.20;70.50;;;;;;5012912;28;20041;-69
2024/01/18 01:34:25;;;;;;;11.02;5.55;;;18.30;70.50;;;;;;5013542;28;20081;-70
2024/01/18 01:36:51;;;;;;;6.20;5.25;;;18.20;70.30;;;;;;5013644;28;20022;-68
2024/01/18 01:39:17;;;;;;;15.50;5.07;;;18.20;70.30;;;;;;5013113;28;20044;-66
2024/01/18 01:41:42;;;;;;;7.93;4.88;;;18.20;71.00;;;;;;5012700;28;20022;-67
2024/01/18 01:44:08;;;;;;;11.10;5.40;;;18.30;71.70;;;;;;5013479;28;20474;-67
2024/01/18 01:46:34;;;;;;;7.32;5.07;;;18.30;71.70;;;;;;5013141;28;20394;-66
2024/01/18 01:49:02;;;;;;;9.98;5.20;;;18.20;71.70;;;;;;5012353;28;20029;-66
2024/01/18 01:51:41;;;;;;;6.80;4.53;;;18.20;71.90;;;;;;5012694;28;20033;-66
2024/01/18 01:54:07;;;;;;;7.80;4.70;;;18.30;71.70;;;;;;5013081;28;20041;-67
2024/01/18 01:56:36;;;;;;;10.05;5.07;;;18.20;71.50;;;;;;5013001;28;20115;-66
2024/01/18 01:59:05;;;;;;;13.60;5.85;;;18.20;72.30;;;;;;5012919;28;20030;-65
2024/01/18 02:01:31;;;;;;;18.17;6.25;;;18.20;72.60;;;;;;5012162;28;20034;-65
2024/01/18 02:03:57;;;;;;;20.42;6.05;;;18.20;73.30;;;;;;5012867;28;20033;-66
2024/01/18 02:06:24;;;;;;;14.90;5.40;;;18.30;73.40;;;;;;5012885;28;20105;-67
2024/01/18 02:08:50;;;;;;;19.15;5.90;;;18.20;73.60;;;;;;5012678;28;20032;-68
2024/01/18 02:11:16;;;;;;;25.20;6.40;;;18.30;73.40;;;;;;5012146;28;20030;-67
2024/01/18 02:13:42;;;;;;;14.38;5.43;;;18.30;73.20;;;;;;5012677;28;20105;-67
2024/01/18 02:16:09;;;;;;;14.63;5.55;;;18.30;73.10;;;;;;5012673;28;20105;-66
2024/01/18 02:18:35;;;;;;;15.85;5.75;;;18.30;73.10;;;;;;5012543;28;20053;-67
2024/01/18 02:21:03;;;;;;;14.60;5.10;;;18.40;72.80;;;;;;5012057;28;20026;-68
2024/01/18 02:23:30;;;;;;;11.70;5.28;;;18.40;72.40;;;;;;5012370;28;20577;-67
2024/01/18 02:25:56;;;;;;;11.05;4.78;;;18.40;72.70;;;;;;5012425;28;20034;-67
2024/01/18 02:28:22;;;;;;;11.40;5.80;;;18.40;72.40;;;;;;5012398;28;20084;-67
2024/01/18 02:30:47;;;;;;;10.02;5.00;;;18.40;72.50;;;;;;5011672;28;20480;-67
2024/01/18 02:33:13;;;;;;;10.20;4.78;;;18.40;72.50;;;;;;5012327;28;20029;-68
2024/01/18 02:35:38;;;;;;;13.73;4.57;;;18.40;72.30;;;;;;5011089;28;20034;-68
2024/01/18 02:38:05;;;;;;;11.93;5.38;;;18.40;72.40;;;;;;5044026;28;20026;-68
2024/01/18 02:40:30;;;;;;;12.57;5.20;;;18.40;72.30;;;;;;5011388;28;20034;-67
2024/01/18 02:42:56;;;;;;;10.68;4.97;;;18.40;72.10;;;;;;5010869;28;20033;-67
2024/01/18 02:45:22;;;;;;;7.85;4.72;;;18.40;72.60;;;;;;5011717;28;20056;-67
2024/01/18 02:47:47;;;;;;;12.23;5.18;;;18.40;72.60;;;;;;5011865;28;20030;-67
2024/01/18 02:50:13;;;;;;;21.98;5.15;;;18.40;72.60;;;;;;5011163;28;20434;-66
2024/01/18 02:52:39;;;;;;;15.90;5.22;;;18.40;72.60;;;;;;5011886;28;20029;-67
2024/01/18 02:55:06;;;;;;;13.23;4.88;;;18.30;72.50;;;;;;5011968;28;20022;-67
2024/01/18 02:57:31;;;;;;;12.30;4.72;;;18.30;72.60;;;;;;5011824;28;20084;-65
2024/01/18 02:59:57;;;;;;;9.85;4.38;;;18.30;72.60;;;;;;5010172;28;20077;-66
2024/01/18 03:02:23;;;;;;;9.32;4.35;;;18.30;72.60;;;;;;5011743;28;20045;-66
2024/01/18 03:04:49;;;;;;;7.78;4.60;;;18.30;72.80;;;;;;5011461;28;20473;-66
2024/01/18 03:07:14;;;;;;;6.88;4.45;;;18.30;72.70;;;;;;5011319;28;20033;-67
2024/01/18 03:09:40;;;;;;;8.35;4.90;;;18.30;72.60;;;;;;5011496;28;20068;-66
2024/01/18 03:12:06;;;;;;;14.43;4.47;;;18.30;72.50;;;;;;5010909;28;20409;-67
2024/01/18 03:14:31;;;;;;;7.60;4.07;;;18.30;72.50;;;;;;5011554;28;20029;-66
2024/01/18 03:16:57;;;;;;;8.05;4.93;;;18.30;72.50;;;;;;5011356;28;20117;-67
2024/01/18 03:19:22;;;;;;;10.45;4.47;;;18.20;72.50;;;;;;5011247;28;20114;-68
2024/01/18 03:21:48;;;;;;;8.18;4.30;;;18.20;72.50;;;;;;5011012;28;20056;-67
2024/01/18 03:24:13;;;;;;;9.43;4.18;;;18.20;72.50;;;;;;5011545;28;20050;-68
2024/01/18 03:26:39;;;;;;;10.43;4.82;;;18.20;72.30;;;;;;5011465;28;20057;-68
2024/01/18 03:29:05;;;;;;;7.93;4.22;;;18.20;71.70;;;;;;5011708;28;20026;-70
2024/01/18 03:31:31;;;;;;;13.38;4.10;;;18.30;71.80;;;;;;5010813;28;20022;-67
2024/01/18 03:33:56;;;;;;;8.27;4.57;;;18.30;71.80;;;;;;5011406;28;20022;-69
2024/01/18 03:36:28;;;;;;;10.20;4.40;;;18.30;71.70;;;;;;5011476;28;20024;-68
2024/01/18 03:38:53;;;;;;;6.30;3.72;;;18.40;71.70;;;;;;5011429;28;20393;-69
2024/01/18 03:41:19;;;;;;;7.05;3.78;;;18.30;71.80;;;;;;5010615;28;20032;-69
2024/01/18 03:43:44;;;;;;;12.63;4.07;;;18.30;71.80;;;;;;5011227;28;20521;-68
2024/01/18 03:46:16;;;;;;;6.93;3.88;;;18.30;71.90;;;;;;5011472;28;20022;-68
2024/01/18 03:48:42;;;;;;;7.20;3.75;;;18.30;71.90;;;;;;5011157;28;20080;-68
2024/01/18 03:51:08;;;;;;;9.15;3.92;;;18.30;72.20;;;;;;5010653;28;20034;-69
2024/01/18 03:53:36;;;;;;;9.38;3.90;;;18.30;72.20;;;;;;5011384;28;20030;-69
2024/01/18 03:56:01;;;;;;;9.75;4.22;;;18.30;72.30;;;;;;5011206;28;20057;-68
2024/01/18 03:58:27;;;;;;;8.35;3.85;;;18.30;72.70;;;;;;5011166;28;20061;-68
2024/01/18 04:00:52;;;;;;;9.68;4.40;;;18.30;72.70;;;;;;5009172;28;20034;-67
2024/01/18 04:03:19;;;;;;;8.52;4.68;;;18.30;72.60;;;;;;5011144;28;20030;-68
2024/01/18 04:05:45;;;;;;;6.38;3.50;;;18.30;72.90;;;;;;5010818;28;20022;-68
2024/01/18 04:08:11;;;;;;;5.07;3.50;;;18.30;72.60;;;;;;5008401;28;20022;-68
2024/01/18 04:10:36;;;;;;;13.07;4.47;;;18.30;72.30;;;;;;5010043;28;20029;-68
2024/01/18 04:13:02;;;;;;;8.45;3.50;;;18.40;72.30;;;;;;5013554;28;20044;-68
2024/01/18 04:15:28;;;;;;;5.22;3.53;;;18.40;72.00;;;;;;5013309;28;20022;-66
2024/01/18 04:17:54;;;;;;;9.40;4.10;;;18.40;72.00;;;;;;5013363;28;20049;-66
2024/01/18 04:20:23;;;;;;;7.82;3.67;;;18.40;72.50;;;;;;5012616;28;20466;-67
2024/01/18 04:22:48;;;;;;;7.28;3.83;;;18.40;72.50;;;;;;5013170;28;20037;-66
2024/01/18 04:25:14;;;;;;;6.38;3.28;;;18.30;72.40;;;;;;5012749;28;20018;-62
2024/01/18 04:27:40;;;;;;;6.75;3.75;;;18.40;72.40;;;;;;5011062;28;20040;-64
2024/01/18 04:30:06;;;;;;;8.32;3.80;;;18.30;72.80;;;;;;5012321;28;20021;-64
2024/01/18 04:32:31;;;;;;;6.47;3.47;;;18.30;72.70;;;;;;5013069;28;20121;-64
2024/01/18 04:34:57;;;;;;;7.03;3.67;;;18.30;72.90;;;;;;5012811;28;20029;-65
2024/01/18 04:37:23;;;;;;;7.25;3.50;;;18.30;73.20;;;;;;5012776;28;20052;-65
2024/01/18 04:39:48;;;;;;;4.55;3.35;;;18.20;73.20;;;;;;5012139;28;20072;-64
2024/01/18 04:42:16;;;;;;;6.05;3.83;;;18.30;73.00;;;;;;5012651;28;20029;-64
2024/01/18 04:44:42;;;;;;;7.75;3.28;;;18.20;73.00;;;;;;4994406;28;20106;-65
2024/01/18 04:47:08;;;;;;;4.45;3.17;;;18.20;72.90;;;;;;5012221;28;20159;-65
2024/01/18 04:49:33;;;;;;;7.65;3.40;;;18.20;73.00;;;;;;5010644;28;20485;-65
2024/01/18 04:52:00;;;;;;;5.82;3.63;;;18.20;72.80;;;;;;5011696;28;20036;-68
2024/01/18 04:54:25;;;;;;;7.22;3.55;;;18.20;72.80;;;;;;5010974;28;20514;-67
2024/01/18 04:56:51;;;;;;;8.77;3.47;;;18.20;73.10;;;;;;5012510;28;20057;-68
2024/01/18 04:59:17;;;;;;;4.65;3.00;;;18.20;73.10;;;;;;5012347;28;20032;-65
2024/01/18 05:01:43;;;;;;;3.72;2.92;;;18.20;73.00;;;;;;5010805;28;20152;-66
2024/01/18 05:04:09;;;;;;;6.38;3.10;;;18.10;73.00;;;;;;5011253;28;20065;-66
2024/01/18 05:06:35;;;;;;;16.23;3.67;;;18.10;73.10;;;;;;5010110;28;20363;-65
2024/01/18 05:09:01;;;;;;;6.07;3.05;;;18.20;73.10;;;;;;5012176;28;20591;-67
2024/01/18 05:11:27;;;;;;;3.85;3.00;;;18.10;73.30;;;;;;5012066;28;20037;-66
2024/01/18 05:13:53;;;;;;;9.38;3.08;;;18.10;73.20;;;;;;5012254;28;20097;-66
2024/01/18 05:16:19;;;;;;;12.55;2.97;;;18.20;73.40;;;;;;5010781;28;20026;-67
2024/01/18 05:18:44;;;;;;;8.80;3.88;;;18.20;73.50;;;;;;5012140;28;20030;-66
2024/01/18 05:21:10;;;;;;;10.02;3.40;;;18.20;73.60;;;;;;5011480;28;20553;-66
2024/01/18 05:23:37;;;;;;;7.45;2.88;;;18.20;73.70;;;;;;5010118;28;20033;-65
2024/01/18 05:26:03;;;;;;;3.90;2.92;;;18.20;73.70;;;;;;5012018;28;20101;-65
2024/01/18 05:28:29;;;;;;;8.52;3.17;;;18.20;73.70;;;;;;5011807;28;20442;-65
2024/01/18 05:30:56;;;;;;;9.32;3.35;;;18.20;73.60;;;;;;5011369;28;20103;-65
2024/01/18 05:33:22;;;;;;;4.35;3.20;;;18.20;73.60;;;;;;5011817;28;20034;-66
2024/01/18 05:35:47;;;;;;;9.00;3.47;;;18.10;73.50;;;;;;5012017;28;20029;-66
2024/01/18 05:38:13;;;;;;;5.68;3.08;;;18.20;73.60;;;;;;5011978;28;20030;-65
2024/01/18 05:40:39;;;;;;;4.97;2.92;;;18.20;73.70;;;;;;5010836;28;20030;-66
2024/01/18 05:43:04;;;;;;;4.78;2.80;;;18.20;73.50;;;;;;5011674;28;20113;-66
2024/01/18 05:45:30;;;;;;;8.30;2.90;;;18.20;73.40;;;;;;5011040;28;20026;-65
2024/01/18 05:47:56;;;;;;;5.03;2.80;;;18.10;73.40;;;;;;5011846;28;20022;-66
2024/01/18 05:50:23;;;;;;;5.88;3.08;;;18.10;73.30;;;;;;5009032;28;20084;-65
2024/01/18 05:52:48;;;;;;;4.95;2.53;;;18.20;73.30;;;;;;5011025;28;20105;-66
2024/01/18 05:55:14;;;;;;;5.75;3.30;;;18.10;73.20;;;;;;5010828;28;20114;-65
2024/01/18 05:57:41;;;;;;;17.10;3.47;;;18.10;73.10;;;;;;5011611;28;20084;-66
2024/01/18 06:00:07;;;;;;;5.53;3.30;;;18.20;73.20;;;;;;5010669;28;20041;-66
2024/01/18 06:02:33;;;;;;;5.18;3.13;;;18.10;73.20;;;;;;5011495;28;20105;-66
2024/01/18 06:04:59;;;;;;;9.05;3.03;;;18.10;73.30;;;;;;5011367;28;20110;-65
2024/01/18 06:07:26;;;;;;;8.63;3.33;;;18.20;73.10;;;;;;5011744;28;20437;-66
2024/01/18 06:09:52;;;;;;;15.95;4.32;;;18.20;73.70;;;;;;5018358;28;20028;-65
2024/01/18 06:12:18;;;;;;;13.35;3.35;;;18.30;73.40;;;;;;5029305;28;20021;-65
2024/01/18 06:14:43;;;;;;;21.85;4.13;;;18.30;72.90;;;;;;5010963;28;20044;-66
2024/01/18 06:17:09;;;;;;;17.17;4.03;;;18.30;73.30;;;;;;5010188;28;20402;-67
2024/01/18 06:19:35;;;;;;;7.30;3.15;;;18.30;73.20;;;;;;5002466;28;20045;-65
2024/01/18 06:22:00;;;;;;;12.68;3.28;;;18.30;72.90;;;;;;5006618;28;20061;-64
2024/01/18 06:24:28;;;;;;;11.20;3.50;;;18.30;73.20;;;;;;5010152;28;20034;-64
2024/01/18 06:26:54;;;;;;;9.30;2.92;;;18.30;73.10;;;;;;5010735;28;20028;-65
2024/01/18 06:29:26;;;;;;;8.07;3.70;;;18.40;73.10;;;;;;5010666;28;20034;-64
2024/01/18 06:31:52;;;;;;;5.40;2.58;;;18.40;73.10;;;;;;5010308;28;20026;-66
2024/01/18 06:34:18;;;;;;;12.57;2.90;;;18.40;73.10;;;;;;5010459;28;20121;-66
2024/01/18 06:36:44;;;;;;;12.77;2.90;;;18.40;73.30;;;;;;5010724;28;20045;-65
2024/01/18 06:39:10;;;;;;;10.93;3.55;;;18.40;73.40;;;;;;5010446;28;20040;-66
2024/01/18 06:41:36;;;;;;;5.65;2.60;;;18.50;73.50;;;;;;5010189;28;20372;-65
2024/01/18 06:44:02;;;;;;;8.70;3.25;;;18.40;73.70;;;;;;5008733;28;20478;-66
2024/01/18 06:46:28;;;;;;;5.93;3.40;;;18.50;73.70;;;;;;5008612;28;20026;-66
2024/01/18 06:48:54;;;;;;;6.95;3.00;;;18.50;73.80;;;;;;5010066;28;20117;-66
2024/01/18 06:51:24;;;;;;;7.68;3.15;;;18.50;73.70;;;;;;5009941;28;20100;-65
2024/01/18 06:53:50;;;;;;;8.70;3.13;;;18.50;73.70;;;;;;5051844;23;20049;-66
2024/01/18 06:56:16;;;;;;;14.13;3.75;;;18.50;74.00;;;;;;5051313;28;20458;-68
2024/01/18 06:58:43;;;;;;;9.70;3.78;;;18.50;74.80;;;;;;5051438;28;20059;-68
2024/01/18 07:01:10;;;;;;;8.63;3.30;;;18.50;75.40;;;;;;5050738;28;20086;-68
2024/01/18 07:03:36;;;;;;;9.38;3.58;;;18.50;75.10;;;;;;5051201;28;20044;-67
2024/01/18 07:06:05;;;;;;;17.67;11.70;;;18.50;75.40;;;;;;5051359;28;20104;-64
2024/01/18 07:08:31;;;;;;;15.98;11.60;;;17.30;49.30;;;;;;5051491;28;20028;-63
2024/01/18 07:10:57;;;;;;;17.75;12.52;;;15.40;46.70;;;;;;5050610;28;20018;-64
2024/01/18 07:13:23;;;;;;;15.10;12.43;;;14.20;46.00;;;;;;5051169;28;20031;-63
2024/01/18 07:15:48;;;;;;;15.32;12.25;;;13.00;48.10;;;;;;5051512;28;20025;-63
2024/01/18 07:18:14;;;;;;;16.55;13.13;;;11.90;47.90;;;;;;5051357;28;20520;-63
2024/01/18 07:20:40;;;;;;;17.73;13.18;;;;;;;;;;5050578;28;20055;-63
2024/01/18 07:23:06;;;;;;;20.23;13.45;;;;;;;;;;5050787;28;20044;-63
2024/01/18 07:25:32;;;;;;;17.75;12.88;;;;;;;;;;5050991;28;20025;-66
2024/01/18 07:27:58;;;;;;;14.15;10.80;;;;;;;;;;5050993;28;20025;-67
2024/01/18 07:30:24;;;;;;;14.90;11.13;;;;;;;;;;5050565;28;20025;-66
2024/01/18 07:32:50;;;;;;;16.77;11.15;;;;;;;;;;5049590;28;20056;-68
2024/01/18 07:35:16;;;;;;;18.10;9.82;;;;;;;;;;5051230;28;20495;-65
2024/01/18 07:37:42;;;;;;;14.77;10.15;;;;;;;;;;5050853;28;20028;-67
2024/01/18 07:40:08;;;;;;;16.77;9.07;;;;;;;;;;5049159;28;20021;-67
2024/01/18 07:42:34;;;;;;;16.80;8.60;;;;;;;;;;5051368;28;20021;-66
2024/01/18 07:45:00;;;;;;;13.90;7.88;;;;;;;;;;5050612;28;20384;-66
2024/01/18 07:47:26;;;;;;;14.63;7.65;;;;;;;;;;5050930;28;20021;-69
2024/01/18 07:49:52;;;;;;;15.82;6.63;;;;;;;;;;5050129;28;20025;-66
2024/01/18 07:52:19;;;;;;;10.82;6.88;;;;;;;;;;5050513;28;20476;-67
2024/01/18 07:54:45;;;;;;;14.23;5.85;;;;;;;;;;5050603;28;20033;-67
2024/01/18 07:57:12;;;;;;;13.45;5.90;;;;;;;;;;5050726;28;20025;-66
2024/01/18 07:59:38;;;;;;;9.65;5.47;;;;;;;;;;5050723;28;20026;-67
2024/01/18 08:02:04;;;;;;;12.23;5.05;;;;;;;;;;5050126;28;20032;-67
2024/01/18 08:04:31;;;;;;;12.73;4.88;;;;;;;;;;5050565;28;20388;-66
2024/01/18 08:06:57;;;;;;;8.88;4.53;;;;;;;;;;5050588;28;20021;-67
2024/01/18 08:09:23;;;;;;;9.63;4.18;;;;;;;;;;5050519;28;20020;-66
2024/01/18 08:11:49;;;;;;;5.63;3.80;;;;;;;;;;5049947;28;20029;-67
2024/01/18 08:14:15;;;;;;;8.43;3.85;;;;;;;;;;5049157;28;20021;-67
2024/01/18 08:16:41;;;;;;;7.18;4.63;;;;;;;;;;5049549;28;20499;-67
2024/01/18 08:19:07;;;;;;;8.57;3.78;;;;;;;;;;5049276;28;20108;-67
2024/01/18 08:21:33;;;;;;;8.07;3.78;;;;;;;;;;5048726;28;20381;-67
2024/01/18 08:23:59;;;;;;;6.75;4.22;;;;;;;;;;5050442;28;20104;-67
2024/01/18 08:26:25;;;;;;;10.43;3.67;;;;;;;;;;5050401;28;20024;-67
2024/01/18 08:28:51;;;;;;;6.63;3.22;;;;;;;;;;5052124;28;20021;-67
2024/01/18 08:31:17;;;;;;;4.88;3.00;;;;;;;;;;5051364;28;20468;-69
2024/01/18 08:33:43;;;;;;;6.65;3.40;;;;;;;;;;5051796;28;20063;-66
2024/01/18 08:36:09;;;;;;;8.18;3.30;;;;;;;;;;5052191;28;20432;-66
2024/01/18 08:38:36;;;;;;;5.78;3.53;;;;;;;;;;5051232;28;20099;-68
2024/01/18 08:41:02;;;;;;;5.20;3.17;;;;;;;;;;5050900;28;20369;-66
2024/01/18 08:43:31;;;;;;;7.82;3.47;;;;;;;;;;5049150;28;20027;-66
2024/01/18 08:45:57;;;;;;;7.28;3.40;;;;;;;;;;5049002;28;20032;-66
2024/01/18 08:48:23;;;;;;;5.57;3.22;;;;;;;;;;5050333;28;20017;-68
2024/01/18 08:50:50;;;;;;;5.20;3.38;;;;;;;;;;5049532;28;20049;-67
2024/01/18 08:53:16;;;;;;;11.35;2.95;;;;;;;;;;5050205;28;20075;-66
2024/01/18 08:55:42;;;;;;;6.22;3.08;;;;;;;;;;5050205;28;20064;-67
2024/01/18 08:58:08;;;;;;;6.25;3.00;;;;;;;;;;5052032;28;20104;-68
2024/01/18 09:00:35;;;;;;;4.88;3.05;;;;;;;;;;5053084;28;20059;-66
2024/01/18 09:03:01;;;;;;;4.88;2.80;;;;;;;;;;5053617;28;20021;-67
2024/01/18 09:05:27;;;;;;;5.65;3.50;;;;;;;;;;5054080;28;20109;-66
2024/01/18 09:07:53;;;;;;;5.38;2.95;;;;;;;;;;5053579;28;20028;-66
2024/01/18 09:10:20;;;;;;;3.83;2.78;;;;;;;;;;5052901;28;20049;-67
2024/01/18 09:12:47;;;;;;;8.00;2.65;;;;;;;;;;5053495;28;20492;-68
2024/01/18 09:15:13;;;;;;;3.53;2.47;;;;;;;;;;5053780;28;20151;-67
2024/01/18 09:17:41;;;;;;;3.95;2.78;;;;;;;;;;5053574;28;20053;-67
2024/01/18 09:20:09;;;;;;;4.90;2.80;;;;;;;;;;5052670;28;20442;-69
2024/01/18 09:22:35;;;;;;;3.53;2.72;;;;;;;;;;5053303;28;20053;-67
2024/01/18 09:25:01;;;;;;;4.43;2.60;;;;;;;;;;5053473;28;20561;-67
2024/01/18 09:27:27;;;;;;;3.97;2.45;;;;;;;;;;5053482;28;20033;-67
2024/01/18 09:29:53;;;;;;;6.63;2.75;;;;;;;;;;5052558;28;20025;-67
2024/01/18 09:32:20;;;;;;;18.30;3.45;;;;;;;;;;5053298;28;20074;-65
2024/01/18 09:34:46;;;;;;;7.30;3.10;;;;;;;;;;5053309;28;20035;-67
2024/01/18 09:37:12;;;;;;;8.30;2.70;;;;;;;;;;5053377;28;20104;-67
2024/01/18 09:39:39;;;;;;;8.73;3.20;;;;;;;;;;5053038;28;20028;-66
2024/01/18 09:42:07;;;;;;;8.10;2.65;;;;;;;;;;5052624;28;20055;-64
2024/01/18 09:44:37;;;;;;;7.63;2.65;;;18.00;66.10;;;;;;5053222;28;20045;-67
2024/01/18 09:47:03;;;;;;;6.65;2.80;;;18.00;66.10;;;;;;5053016;28;20028;-68
2024/01/18 09:49:32;;;;;;;7.45;2.42;;;18.00;66.10;;;;;;5052660;28;20028;-67
2024/01/18 09:51:59;;;;;;;5.90;2.42;;;18.10;66.40;;;;;;5052267;28;20048;-67
2024/01/18 09:54:25;;;;;;;11.32;2.67;;;18.10;66.90;;;;;;5052740;28;20428;-68
2024/01/18 09:56:53;;;;;;;4.88;2.28;;;18.20;66.60;;;;;;5052747;28;20020;-68
2024/01/18 09:59:21;;;;;;;6.65;2.50;;;18.20;66.70;;;;;;5052648;28;20018;-68
2024/01/18 10:01:47;;;;;;;7.88;3.08;;;18.30;66.70;;;;;;5051767;28;20036;-69
2024/01/18 10:04:17;;;;;;;7.85;3.83;;;18.30;66.90;;;;;;5052371;28;20395;-67
2024/01/18 10:06:43;;;;;;;9.30;4.18;;;18.30;67.00;;;;;;5052530;28;20020;-67
2024/01/18 10:09:14;;;;;;;8.27;4.75;;;18.40;66.90;;;;;;5050988;28;20484;-69
2024/01/18 10:11:41;;;;;;;12.30;6.22;;;18.40;67.00;;;;;;5051931;28;20029;-67
2024/01/18 10:14:07;;;;;;;11.25;5.50;;;18.50;67.10;;;;;;5052469;28;20040;-65
2024/01/18 10:16:37;;;;;;;12.82;5.97;;;18.50;67.00;;;;;;5052661;28;20031;-66
2024/01/18 10:19:05;;;;;;;9.98;5.80;;;18.50;67.10;;;;;;5052615;28;20108;-69
2024/01/18 10:21:33;;;;;;;11.20;5.78;;;18.50;67.50;;;;;;5051894;28;20491;-66
2024/01/18 10:24:00;;;;;;;15.00;6.20;;;18.50;67.60;;;;;;5052507;28;20463;-66
2024/01/18 10:26:35;;;;;;;13.70;5.65;;;18.50;67.50;;;;;;5052365;28;20550;-67
2024/01/18 10:29:01;;;;;;;15.60;6.28;;;18.50;67.40;;;;;;5052093;28;20083;-66
2024/01/18 10:31:27;;;;;;;15.02;4.95;;;18.50;67.30;;;;;;5051438;28;20041;-67
2024/01/18 10:33:52;;;;;;;10.88;5.32;;;18.50;67.30;;;;;;5052044;28;20021;-67
2024/01/18 10:36:19;;;;;;;12.23;5.10;;;18.50;67.10;;;;;;5052104;28;20028;-68
2024/01/18 10:38:44;;;;;;;10.43;5.30;;;18.50;67.00;;;;;;5050495;28;20020;-67
2024/01/18 10:41:11;;;;;;;9.75;4.95;;;18.50;66.90;;;;;;5050748;28;20028;-66
2024/01/18 10:43:37;;;;;;;10.45;4.85;;;18.50;66.80;;;;;;5050885;28;20120;-67
2024/01/18 10:46:04;;;;;;;16.27;5.32;;;18.50;66.70;;;;;;5051983;28;20057;-67
2024/01/18 10:48:31;;;;;;;10.63;5.18;;;18.50;66.70;;;;;;5051968;28;20033;-68
2024/01/18 10:50:58;;;;;;;8.85;4.70;;;18.50;66.60;;;;;;5050780;28;20021;-67
2024/01/18 10:53:25;;;;;;;6.82;4.20;;;18.50;66.50;;;;;;5051766;28;20062;-67
2024/01/18 10:55:51;;;;;;;6.40;4.53;;;18.50;66.40;;;;;;5051756;28;20025;-68
2024/01/18 10:58:17;;;;;;;8.32;4.72;;;18.50;66.30;;;;;;5051551;28;20126;-68
2024/01/18 11:00:43;;;;;;;5.47;3.45;;;18.50;66.40;;;;;;5051284;28;20028;-66
2024/01/18 11:03:10;;;;;;;4.82;3.20;;;18.50;67.20;;;;;;5051478;28;20031;-67
2024/01/18 11:05:36;;;;;;;7.28;3.65;;;18.50;67.40;;;;;;5052490;28;20094;-65
2024/01/18 11:08:03;;;;;;;8.90;3.10;;;18.50;67.80;;;;;;5052971;28;20075;-68
2024/01/18 11:10:31;;;;;;;4.50;2.97;;;18.50;67.90;;;;;;5052338;28;20075;-67
2024/01/18 11:12:57;;;;;;;5.45;3.20;;;18.50;67.90;;;;;;5051312;28;20035;-66
2024/01/18 11:15:23;;;;;;;9.40;3.28;;;18.60;67.70;;;;;;5051670;28;20467;-68
2024/01/18 11:17:52;;;;;;;7.38;3.03;;;18.70;67.60;;;;;;5052291;28;20083;-72
2024/01/18 11:20:18;;;;;;;7.85;2.92;;;18.70;67.60;;;;;;5050548;28;20047;-68
2024/01/18 11:22:47;;;;;;;6.78;3.25;;;18.80;67.50;;;;;;5052066;28;20111;-67
2024/01/18 11:25:21;;;;;;;3.58;2.38;;;18.90;67.50;;;;;;5052441;28;20488;-69
2024/01/18 11:27:47;;;;;;;6.68;2.60;;;18.90;67.30;;;;;;5051922;28;20431;-69
2024/01/18 11:30:31;;;;;;;3.63;2.38;;;18.90;67.40;;;;;;5050512;28;20016;-70
2024/01/18 11:32:57;;;;;;;3.90;2.78;;;18.90;67.20;;;;;;5051153;28;20023;-71
2024/01/18 11:35:24;;;;;;;5.95;2.42;;;18.90;67.20;;;;;;5049676;28;20378;-68
2024/01/18 11:37:50;;;;;;;7.50;2.55;;;18.90;67.20;;;;;;5050755;28;20109;-69
2024/01/18 11:40:18;;;;;;;7.50;3.25;;;18.90;67.30;;;;;;5050418;28;20583;-73
2024/01/18 11:42:45;;;;;;;5.95;2.75;;;18.90;67.30;;;;;;5051080;28;20052;-71
2024/01/18 11:45:16;;;;;;;5.03;2.50;;;18.90;67.40;;;;;;5050886;28;20053;-69
2024/01/18 11:47:42;;;;;;;2.72;2.20;;;18.90;67.40;;;;;;5051123;28;20036;-68
2024/01/18 11:50:11;;;;;;;5.45;2.40;;;18.90;67.50;;;;;;5050196;28;20049;-69
2024/01/18 11:52:40;;;;;;;8.30;2.42;;;18.90;67.40;;;;;;5051133;28;20021;-68
2024/01/18 11:55:06;;;;;;;3.33;2.28;;;18.90;67.50;;;;;;5048728;28;20036;-67
2024/01/18 11:57:32;;;;;;;8.18;2.33;;;18.90;67.50;;;;;;5050909;28;20054;-70
2024/01/18 11:59:59;;;;;;;3.90;2.50;;;18.90;67.60;;;;;;5032746;28;20025;-70
2024/01/18 12:02:28;;;;;;;2.90;2.13;;;18.90;67.60;;;;;;5031063;28;20061;-67
2024/01/18 12:04:54;;;;;;;4.50;2.38;;;19.00;67.70;;;;;;5031136;28;20025;-67
2024/01/18 12:07:20;;;;;;;4.32;2.25;;;19.00;67.60;;;;;;5031249;28;20397;-70
2024/01/18 12:09:46;;;;;;;3.95;2.03;;;19.00;67.60;;;;;;5030378;28;20029;-68
2024/01/18 12:12:12;;;;;;;3.70;2.10;;;19.00;67.60;;;;;;5034778;28;20396;-70
2024/01/18 12:14:43;;;;;;;7.75;2.40;;;19.00;67.60;;;;;;5051118;28;20037;-68
2024/01/18 12:17:09;;;;;;;;;;;19.00;67.60;;;;;;5051214;28;20403;-67
2024/01/18 12:19:40;;;;;;;4.25;2.00;;;19.00;67.50;;;;;;5050707;28;19932;-68
2024/01/18 12:22:07;;;;;;;5.28;2.08;;;19.00;67.50;;;;;;5050297;28;20032;-66
2024/01/18 12:24:33;;;;;;;2.53;1.90;;;19.00;67.50;;;;;;5051536;28;20017;-68
2024/01/18 12:26:59;;;;;;;1.92;1.52;;;19.00;67.50;;;;;;5049100;28;20032;-69
2024/01/18 12:29:26;;;;;;;6.20;1.98;;;19.10;67.40;;;;;;5054390;28;20029;-69
2024/01/18 12:31:52;;;;;;;3.13;1.85;;;19.00;67.50;;;;;;5055710;28;20082;-69
2024/01/18 12:34:19;;;;;;;2.47;2.10;;;19.00;67.60;;;;;;5056501;28;20024;-67
2024/01/18 12:36:46;;;;;;;7.82;1.83;;;19.00;67.70;;;;;;5056060;28;20025;-70
2024/01/18 12:39:17;;;;;;;3.28;2.00;;;19.00;67.80;;;;;;5056031;28;20025;-68
2024/01/18 12:41:49;;;;;;;3.90;1.80;;;19.00;67.80;;;;;;5054750;28;20489;-68
2024/01/18 12:44:15;;;;;;;3.78;1.73;;;19.00;67.80;;;;;;5054427;28;20069;-68
2024/01/18 12:46:41;;;;;;;7.07;2.22;;;19.00;67.80;;;;;;5054420;28;20413;-68
2024/01/18 12:49:07;;;;;;;8.02;2.15;;;19.10;68.00;;;;;;5054280;28;20074;-65
2024/01/18 12:51:36;;;;;;;6.60;2.33;;;19.10;68.20;;;;;;5054064;28;20028;-65
2024/01/18 12:54:02;;;;;;;3.15;2.17;;;19.10;68.30;;;;;;5074476;22;20033;-63
2024/01/18 12:56:28;;;;;;;9.70;2.25;;;19.10;68.50;;;;;;5050248;28;20501;-64
2024/01/18 12:58:53;;;;;;;8.27;2.15;;;19.10;68.80;;;;;;5047751;28;20052;-63